createdAt,value
2018-03-21T00:00:06.534Z,79
2018-03-21T00:01:07.259Z,79
2018-03-21T00:02:07.985Z,78
2018-03-21T00:03:08.701Z,78
2018-03-21T00:04:09.429Z,79
2018-03-21T00:05:10.147Z,78
2018-03-21T00:06:10.861Z,78
2018-03-21T00:07:11.577Z,78
2018-03-21T00:08:12.297Z,78
2018-03-21T00:09:13.015Z,78
2018-03-21T00:10:13.760Z,78
2018-03-21T00:11:14.477Z,78
2018-03-21T00:12:15.198Z,78
2018-03-21T00:13:15.907Z,78
2018-03-21T00:14:16.644Z,78
2018-03-21T00:15:17.358Z,78
2018-03-21T00:16:18.073Z,78
2018-03-21T00:17:18.792Z,78
2018-03-21T00:18:19.513Z,78
2018-03-21T00:19:20.248Z,78
2018-03-21T00:20:20.982Z,78
2018-03-21T00:21:21.721Z,78
2018-03-21T00:22:22.447Z,78
2018-03-21T00:23:23.200Z,77
2018-03-21T00:24:23.948Z,77
2018-03-21T00:25:24.666Z,77
2018-03-21T00:26:25.392Z,78
2018-03-21T00:27:26.109Z,78
2018-03-21T00:28:26.826Z,77
2018-03-21T00:29:27.543Z,77
2018-03-21T00:30:28.260Z,77
2018-03-21T00:31:28.985Z,78
2018-03-21T00:32:29.719Z,78
2018-03-21T00:33:30.433Z,78
2018-03-21T00:34:31.148Z,77
2018-03-21T00:35:31.867Z,77
2018-03-21T00:36:32.594Z,77
2018-03-21T00:37:33.308Z,77
2018-03-21T00:38:34.025Z,77
2018-03-21T00:39:34.739Z,77
2018-03-21T00:40:35.455Z,77
2018-03-21T00:41:36.172Z,77
2018-03-21T00:42:36.886Z,76
2018-03-21T00:43:37.614Z,77
2018-03-21T00:44:38.342Z,77
2018-03-21T00:45:39.059Z,76
2018-03-21T00:46:39.774Z,77
2018-03-21T00:47:40.531Z,77
2018-03-21T00:48:41.279Z,76
2018-03-21T00:49:42.020Z,76
2018-03-21T00:50:42.765Z,76
2018-03-21T00:51:43.526Z,76
2018-03-21T00:52:44.278Z,76
2018-03-21T00:53:44.993Z,76
2018-03-21T00:54:45.717Z,76
2018-03-21T00:55:46.445Z,76
2018-03-21T00:56:47.163Z,76
2018-03-21T00:57:47.879Z,76
2018-03-21T00:58:48.593Z,76
2018-03-21T00:59:49.337Z,76
2018-03-21T01:00:50.052Z,76
2018-03-21T01:01:50.771Z,76
2018-03-21T01:02:51.476Z,76
2018-03-21T01:03:52.181Z,76
2018-03-21T01:04:52.897Z,76
2018-03-21T01:05:53.606Z,76
2018-03-21T01:06:54.330Z,76
2018-03-21T01:07:55.046Z,76
2018-03-21T01:08:55.751Z,76
2018-03-21T01:09:56.456Z,76
2018-03-21T01:10:57.176Z,77
2018-03-21T01:11:57.880Z,76
2018-03-21T01:12:58.588Z,76
2018-03-21T01:13:59.292Z,76
2018-03-21T01:14:59.994Z,76
2018-03-21T01:16:00.726Z,76
2018-03-21T01:17:01.425Z,76
2018-03-21T01:18:02.143Z,76
2018-03-21T01:19:02.847Z,76
2018-03-21T01:20:03.567Z,76
2018-03-21T01:21:04.273Z,76
2018-03-21T01:22:04.977Z,76
2018-03-21T01:23:05.683Z,76
2018-03-21T01:24:06.393Z,76
2018-03-21T01:25:07.096Z,76
2018-03-21T01:26:07.803Z,76
2018-03-21T01:27:08.523Z,76
2018-03-21T01:28:09.244Z,76
2018-03-21T01:29:09.949Z,76
2018-03-21T01:30:10.656Z,76
2018-03-21T01:31:11.376Z,76
2018-03-21T01:32:12.082Z,76
2018-03-21T01:33:12.790Z,76
2018-03-21T01:34:13.496Z,76
2018-03-21T01:35:14.203Z,76
2018-03-21T01:36:14.925Z,76
2018-03-21T01:37:15.643Z,76
2018-03-21T01:38:16.350Z,76
2018-03-21T01:39:17.055Z,76
2018-03-21T01:40:17.761Z,76
2018-03-21T01:41:18.467Z,76
2018-03-21T01:42:19.173Z,76
2018-03-21T01:43:19.881Z,76
2018-03-21T01:44:20.587Z,76
2018-03-21T01:45:21.294Z,76
2018-03-21T01:46:22.003Z,76
2018-03-21T01:47:22.708Z,77
2018-03-21T01:48:23.414Z,76
2018-03-21T01:49:24.121Z,77
2018-03-21T01:50:24.826Z,76
2018-03-21T01:51:25.533Z,76
2018-03-21T01:52:26.239Z,77
2018-03-21T01:53:26.945Z,77
2018-03-21T01:54:27.652Z,77
2018-03-21T01:55:28.359Z,77
2018-03-21T01:56:29.067Z,76
2018-03-21T01:57:29.773Z,76
2018-03-21T01:58:30.479Z,76
2018-03-21T01:59:31.186Z,76
2018-03-21T02:00:31.894Z,76
2018-03-21T02:01:32.599Z,76
2018-03-21T02:02:33.304Z,77
2018-03-21T02:03:34.014Z,76
2018-03-21T02:04:34.729Z,77
2018-03-21T02:05:35.434Z,77
2018-03-21T02:06:36.140Z,77
2018-03-21T02:07:36.859Z,77
2018-03-21T02:08:37.564Z,77
2018-03-21T02:09:38.270Z,77
2018-03-21T02:10:38.976Z,77
2018-03-21T02:11:39.682Z,77
2018-03-21T02:12:40.385Z,77
2018-03-21T02:13:41.091Z,77
2018-03-21T02:14:41.809Z,77
2018-03-21T02:15:42.514Z,77
2018-03-21T02:16:43.220Z,77
2018-03-21T02:17:43.924Z,77
2018-03-21T02:18:44.629Z,78
2018-03-21T02:19:45.335Z,78
2018-03-21T02:20:46.056Z,77
2018-03-21T02:21:46.774Z,77
2018-03-21T02:22:47.479Z,77
2018-03-21T02:23:48.182Z,77
2018-03-21T02:24:48.888Z,78
2018-03-21T02:25:49.608Z,77
2018-03-21T02:26:50.315Z,77
2018-03-21T02:27:51.021Z,77
2018-03-21T02:28:51.741Z,77
2018-03-21T02:29:52.448Z,77
2018-03-21T02:30:53.174Z,77
2018-03-21T02:31:53.875Z,78
2018-03-21T02:32:54.581Z,78
2018-03-21T02:33:55.287Z,77
2018-03-21T02:34:55.994Z,77
2018-03-21T02:35:56.702Z,77
2018-03-21T02:36:57.413Z,78
2018-03-21T02:37:58.132Z,78
2018-03-21T02:38:58.837Z,78
2018-03-21T02:39:59.547Z,78
2018-03-21T02:41:00.253Z,78
2018-03-21T02:42:00.959Z,77
2018-03-21T02:43:01.666Z,77
2018-03-21T02:44:02.374Z,77
2018-03-21T02:45:03.079Z,77
2018-03-21T02:46:03.785Z,77
2018-03-21T02:47:04.496Z,77
2018-03-21T02:48:05.210Z,77
2018-03-21T02:49:05.905Z,77
2018-03-21T02:50:06.629Z,78
2018-03-21T02:51:07.347Z,77
2018-03-21T02:52:08.070Z,78
2018-03-21T02:53:08.786Z,78
2018-03-21T02:54:09.496Z,78
2018-03-21T02:55:10.218Z,77
2018-03-21T02:56:10.924Z,78
2018-03-21T02:57:11.633Z,78
2018-03-21T02:58:12.341Z,78
2018-03-21T02:59:13.049Z,78
2018-03-21T03:00:13.756Z,78
2018-03-21T03:01:14.464Z,78
2018-03-21T03:02:15.169Z,78
2018-03-21T03:03:15.877Z,77
2018-03-21T03:04:16.583Z,77
2018-03-21T03:05:17.306Z,78
2018-03-21T03:06:18.026Z,78
2018-03-21T03:07:18.731Z,78
2018-03-21T03:08:19.438Z,78
2018-03-21T03:09:20.144Z,78
2018-03-21T03:10:20.863Z,78
2018-03-21T03:11:21.568Z,78
2018-03-21T03:12:22.275Z,78
2018-03-21T03:13:22.982Z,78
2018-03-21T03:14:23.688Z,78
2018-03-21T03:15:24.394Z,78
2018-03-21T03:16:25.116Z,78
2018-03-21T03:17:25.824Z,78
2018-03-21T03:18:26.538Z,78
2018-03-21T03:19:27.239Z,78
2018-03-21T03:20:27.948Z,78
2018-03-21T03:21:28.654Z,78
2018-03-21T03:22:29.362Z,78
2018-03-21T03:23:30.069Z,78
2018-03-21T03:24:30.776Z,78
2018-03-21T03:25:31.497Z,78
2018-03-21T03:26:32.217Z,78
2018-03-21T03:27:32.926Z,78
2018-03-21T03:28:33.647Z,78
2018-03-21T03:29:34.353Z,77
2018-03-21T03:30:35.073Z,77
2018-03-21T03:31:35.778Z,77
2018-03-21T03:32:36.484Z,78
2018-03-21T03:33:37.192Z,78
2018-03-21T03:34:37.896Z,77
2018-03-21T03:35:38.602Z,78
2018-03-21T03:36:39.308Z,77
2018-03-21T03:37:40.016Z,77
2018-03-21T03:38:40.730Z,77
2018-03-21T03:39:41.429Z,77
2018-03-21T03:40:42.153Z,78
2018-03-21T03:41:42.862Z,77
2018-03-21T03:42:43.570Z,77
2018-03-21T03:43:44.292Z,78
2018-03-21T03:44:45.001Z,78
2018-03-21T03:45:45.708Z,78
2018-03-21T03:46:46.414Z,78
2018-03-21T03:47:47.126Z,78
2018-03-21T03:48:47.827Z,78
2018-03-21T03:49:48.534Z,78
2018-03-21T03:50:49.241Z,78
2018-03-21T03:51:49.949Z,78
2018-03-21T03:52:50.672Z,77
2018-03-21T03:53:51.394Z,78
2018-03-21T03:54:52.102Z,77
2018-03-21T03:55:52.823Z,77
2018-03-21T03:56:53.531Z,78
2018-03-21T03:57:54.241Z,77
2018-03-21T03:58:54.949Z,78
2018-03-21T03:59:55.672Z,77
2018-03-21T04:00:56.393Z,77
2018-03-21T04:01:57.093Z,77
2018-03-21T04:02:57.800Z,77
2018-03-21T04:03:58.507Z,78
2018-03-21T04:04:59.212Z,78
2018-03-21T04:05:59.918Z,78
2018-03-21T04:07:00.624Z,78
2018-03-21T04:08:01.329Z,78
2018-03-21T04:09:02.033Z,77
2018-03-21T04:10:02.739Z,77
2018-03-21T04:11:03.446Z,78
2018-03-21T04:12:04.154Z,77
2018-03-21T04:13:04.880Z,77
2018-03-21T04:14:05.588Z,77
2018-03-21T04:15:06.293Z,77
2018-03-21T04:16:07.004Z,77
2018-03-21T04:17:07.706Z,77
2018-03-21T04:18:08.413Z,77
2018-03-21T04:19:09.119Z,77
2018-03-21T04:20:09.841Z,77
2018-03-21T04:21:10.553Z,77
2018-03-21T04:22:11.256Z,77
2018-03-21T04:23:11.966Z,77
2018-03-21T04:24:12.666Z,77
2018-03-21T04:25:13.372Z,77
2018-03-21T04:26:14.092Z,77
2018-03-21T04:27:14.786Z,77
2018-03-21T04:28:15.492Z,78
2018-03-21T04:29:16.200Z,77
2018-03-21T04:30:16.907Z,78
2018-03-21T04:31:17.614Z,78
2018-03-21T04:32:18.318Z,78
2018-03-21T04:33:19.025Z,78
2018-03-21T04:34:19.732Z,77
2018-03-21T04:35:20.440Z,77
2018-03-21T04:36:21.149Z,76
2018-03-21T04:37:21.868Z,76
2018-03-21T04:38:22.588Z,76
2018-03-21T04:39:23.298Z,77
2018-03-21T04:40:24.017Z,75
2018-03-21T04:41:24.726Z,76
2018-03-21T04:42:25.448Z,76
2018-03-21T04:43:26.154Z,77
2018-03-21T04:44:26.862Z,77
2018-03-21T04:45:27.570Z,77
2018-03-21T04:46:28.290Z,77
2018-03-21T04:47:29.012Z,76
2018-03-21T04:48:29.721Z,76
2018-03-21T04:49:30.442Z,76
2018-03-21T04:50:31.148Z,76
2018-03-21T04:51:31.856Z,75
2018-03-21T04:52:32.564Z,76
2018-03-21T04:53:33.270Z,76
2018-03-21T04:54:33.976Z,75
2018-03-21T04:55:34.682Z,76
2018-03-21T04:56:35.405Z,76
2018-03-21T04:57:36.114Z,76
2018-03-21T04:58:36.836Z,76
2018-03-21T04:59:37.544Z,76
2018-03-21T05:00:38.250Z,76
2018-03-21T05:01:38.972Z,76
2018-03-21T05:02:39.681Z,75
2018-03-21T05:03:40.390Z,75
2018-03-21T05:04:41.098Z,75
2018-03-21T05:05:41.809Z,75
2018-03-21T05:06:42.513Z,75
2018-03-21T05:07:43.222Z,74
2018-03-21T05:08:43.929Z,75
2018-03-21T05:09:44.634Z,74
2018-03-21T05:10:45.343Z,74
2018-03-21T05:11:46.050Z,74
2018-03-21T05:12:46.759Z,74
2018-03-21T05:13:47.480Z,74
2018-03-21T05:14:48.203Z,74
2018-03-21T05:15:48.925Z,74
2018-03-21T05:16:49.649Z,74
2018-03-21T05:17:50.360Z,74
2018-03-21T05:18:51.069Z,74
2018-03-21T05:19:51.777Z,74
2018-03-21T05:20:52.501Z,74
2018-03-21T05:21:53.208Z,74
2018-03-21T05:22:53.917Z,74
2018-03-21T05:23:54.624Z,74
2018-03-21T05:24:55.334Z,74
2018-03-21T05:25:56.055Z,74
2018-03-21T05:26:56.763Z,74
2018-03-21T05:27:57.475Z,75
2018-03-21T05:28:58.196Z,75
2018-03-21T05:29:58.902Z,75
2018-03-21T05:30:59.625Z,75
2018-03-21T05:32:00.349Z,75
2018-03-21T05:33:01.059Z,75
2018-03-21T05:34:01.771Z,75
2018-03-21T05:35:02.483Z,75
2018-03-21T05:36:03.197Z,75
2018-03-21T05:37:03.918Z,75
2018-03-21T05:38:04.628Z,74
2018-03-21T05:39:05.340Z,75
2018-03-21T05:40:06.049Z,75
2018-03-21T05:41:06.761Z,74
2018-03-21T05:42:07.473Z,74
2018-03-21T05:43:08.198Z,74
2018-03-21T05:44:08.910Z,74
2018-03-21T05:45:09.634Z,74
2018-03-21T05:46:10.348Z,73
2018-03-21T05:47:11.057Z,73
2018-03-21T05:48:11.767Z,73
2018-03-21T05:49:12.477Z,73
2018-03-21T05:50:13.191Z,73
2018-03-21T05:51:13.899Z,73
2018-03-21T05:52:14.619Z,73
2018-03-21T05:53:15.336Z,72
2018-03-21T05:54:16.047Z,72
2018-03-21T05:55:16.774Z,72
2018-03-21T05:56:17.484Z,72
2018-03-21T05:57:18.196Z,72
2018-03-21T05:58:18.906Z,72
2018-03-21T05:59:19.617Z,72
2018-03-21T06:00:20.359Z,72
2018-03-21T06:01:21.078Z,72
2018-03-21T06:02:21.789Z,72
2018-03-21T06:03:22.501Z,72
2018-03-21T06:04:23.229Z,72
2018-03-21T06:05:23.924Z,72
2018-03-21T06:06:24.648Z,72
2018-03-21T06:07:25.360Z,72
2018-03-21T06:08:26.083Z,72
2018-03-21T06:09:26.813Z,72
2018-03-21T06:10:27.520Z,72
2018-03-21T06:11:28.236Z,72
2018-03-21T06:12:28.946Z,72
2018-03-21T06:13:29.658Z,72
2018-03-21T06:14:30.377Z,72
2018-03-21T06:15:31.086Z,72
2018-03-21T06:16:31.815Z,72
2018-03-21T06:17:32.542Z,72
2018-03-21T06:18:33.252Z,71
2018-03-21T06:19:33.964Z,71
2018-03-21T06:20:34.679Z,71
2018-03-21T06:21:35.391Z,71
2018-03-21T06:22:36.103Z,70
2018-03-21T06:23:36.816Z,70
2018-03-21T06:24:37.544Z,70
2018-03-21T06:25:38.256Z,70
2018-03-21T06:26:38.981Z,70
2018-03-21T06:27:39.694Z,70
2018-03-21T06:28:40.408Z,70
2018-03-21T06:29:41.120Z,70
2018-03-21T06:30:41.833Z,70
2018-03-21T06:31:42.555Z,70
2018-03-21T06:32:43.268Z,70
2018-03-21T06:33:43.982Z,70
2018-03-21T06:34:44.710Z,70
2018-03-21T06:35:45.422Z,70
2018-03-21T06:36:46.134Z,70
2018-03-21T06:37:46.849Z,70
2018-03-21T06:38:47.560Z,69
2018-03-21T06:39:48.277Z,70
2018-03-21T06:40:48.998Z,70
2018-03-21T06:41:49.723Z,70
2018-03-21T06:42:50.438Z,70
2018-03-21T06:43:51.148Z,70
2018-03-21T06:44:51.862Z,70
2018-03-21T06:45:52.590Z,70
2018-03-21T06:46:53.316Z,70
2018-03-21T06:47:54.029Z,70
2018-03-21T06:48:54.743Z,71
2018-03-21T06:49:55.458Z,70
2018-03-21T06:50:56.185Z,70
2018-03-21T06:51:56.900Z,70
2018-03-21T06:52:57.612Z,71
2018-03-21T06:53:58.330Z,70
2018-03-21T06:54:59.040Z,70
2018-03-21T06:55:59.753Z,71
2018-03-21T06:57:00.482Z,71
2018-03-21T06:58:01.208Z,70
2018-03-21T06:59:01.934Z,71
2018-03-21T07:00:02.648Z,71
2018-03-21T07:01:03.361Z,70
2018-03-21T07:02:04.087Z,71
2018-03-21T07:03:04.814Z,71
2018-03-21T07:04:05.568Z,71
2018-03-21T07:05:06.280Z,71
2018-03-21T07:06:06.994Z,72
2018-03-21T07:07:07.706Z,72
2018-03-21T07:08:08.417Z,72
2018-03-21T07:09:09.131Z,72
2018-03-21T07:10:09.847Z,72
2018-03-21T07:11:10.555Z,72
2018-03-21T07:12:11.266Z,72
2018-03-21T07:13:11.981Z,72
2018-03-21T07:14:12.704Z,72
2018-03-21T07:15:13.423Z,72
2018-03-21T07:16:14.134Z,72
2018-03-21T07:17:14.845Z,72
2018-03-21T07:18:15.559Z,72
2018-03-21T07:19:16.273Z,72
2018-03-21T07:20:16.985Z,72
2018-03-21T07:21:17.699Z,72
2018-03-21T07:22:18.411Z,72
2018-03-21T07:23:19.136Z,72
2018-03-21T07:24:19.849Z,72
2018-03-21T07:25:20.563Z,71
2018-03-21T07:26:21.277Z,71
2018-03-21T07:27:21.991Z,72
2018-03-21T07:28:22.703Z,71
2018-03-21T07:29:23.415Z,71
2018-03-21T07:30:24.128Z,70
2018-03-21T07:31:24.842Z,70
2018-03-21T07:32:25.573Z,69
2018-03-21T07:33:26.285Z,69
2018-03-21T07:34:27.004Z,69
2018-03-21T07:35:27.737Z,69
2018-03-21T07:36:28.456Z,69
2018-03-21T07:37:29.177Z,69
2018-03-21T07:38:29.893Z,68
2018-03-21T07:39:30.610Z,68
2018-03-21T07:40:31.336Z,68
2018-03-21T07:41:32.049Z,68
2018-03-21T07:42:32.764Z,68
2018-03-21T07:43:33.491Z,68
2018-03-21T07:44:34.215Z,67
2018-03-21T07:45:34.929Z,67
2018-03-21T07:46:35.643Z,66
2018-03-21T07:47:36.356Z,66
2018-03-21T07:48:37.090Z,66
2018-03-21T07:49:37.807Z,66
2018-03-21T07:50:38.522Z,67
2018-03-21T07:51:39.234Z,66
2018-03-21T07:52:39.947Z,66
2018-03-21T07:53:40.676Z,66
2018-03-21T07:54:41.389Z,66
2018-03-21T07:55:42.103Z,66
2018-03-21T07:56:42.873Z,66
2018-03-21T07:57:43.531Z,66
2018-03-21T07:58:44.244Z,65
2018-03-21T07:59:45.016Z,66
2018-03-21T08:00:45.738Z,63
2018-03-21T08:01:46.453Z,63
2018-03-21T08:02:47.181Z,62
2018-03-21T08:03:47.895Z,59
2018-03-21T08:04:48.623Z,59
2018-03-21T08:05:49.338Z,59
2018-03-21T08:06:50.051Z,63
2018-03-21T08:07:50.766Z,66
2018-03-21T08:08:51.480Z,68
2018-03-21T08:09:52.195Z,69
2018-03-21T08:10:52.910Z,69
2018-03-21T08:11:53.624Z,68
2018-03-21T08:12:54.339Z,68
2018-03-21T08:13:55.067Z,67
2018-03-21T08:14:55.787Z,67
2018-03-21T08:15:56.496Z,66
2018-03-21T08:16:57.212Z,66
2018-03-21T08:17:57.926Z,66
2018-03-21T08:18:58.640Z,65
2018-03-21T08:19:59.360Z,64
2018-03-21T08:21:00.070Z,64
2018-03-21T08:22:00.785Z,64
2018-03-21T08:23:01.500Z,64
2018-03-21T08:24:02.215Z,65
2018-03-21T08:25:02.972Z,65
2018-03-21T08:26:03.643Z,65
2018-03-21T08:27:04.359Z,66
2018-03-21T08:28:05.074Z,66
2018-03-21T08:29:05.826Z,67
2018-03-21T08:30:06.502Z,67
2018-03-21T08:31:07.216Z,67
2018-03-21T08:32:07.948Z,66
2018-03-21T08:33:08.654Z,66
2018-03-21T08:34:09.369Z,65
2018-03-21T08:35:10.087Z,65
2018-03-21T08:36:10.807Z,65
2018-03-21T08:37:11.520Z,64
2018-03-21T08:38:12.249Z,64
2018-03-21T08:39:12.967Z,64
2018-03-21T08:40:13.682Z,64
2018-03-21T08:41:14.395Z,64
2018-03-21T08:42:15.140Z,64
2018-03-21T08:43:15.851Z,64
2018-03-21T08:44:16.578Z,65
2018-03-21T08:45:17.309Z,64
2018-03-21T08:46:18.023Z,60
2018-03-21T08:47:18.741Z,60
2018-03-21T08:48:19.469Z,62
2018-03-21T08:49:20.186Z,65
2018-03-21T08:50:20.913Z,67
2018-03-21T08:51:21.628Z,68
2018-03-21T08:52:22.343Z,68
2018-03-21T08:53:23.059Z,68
2018-03-21T08:54:23.774Z,68
2018-03-21T08:55:24.488Z,69
2018-03-21T08:56:25.204Z,69
2018-03-21T08:57:25.934Z,69
2018-03-21T08:58:26.648Z,69
2018-03-21T08:59:27.365Z,68
2018-03-21T09:00:28.080Z,69
2018-03-21T09:01:28.815Z,69
2018-03-21T09:02:29.512Z,69
2018-03-21T09:03:30.242Z,70
2018-03-21T09:04:30.956Z,69
2018-03-21T09:05:31.673Z,70
2018-03-21T09:06:32.405Z,71
2018-03-21T09:07:33.133Z,71
2018-03-21T09:08:33.852Z,70
2018-03-21T09:09:34.577Z,70
2018-03-21T09:10:35.307Z,69
2018-03-21T09:11:36.023Z,70
2018-03-21T09:12:36.774Z,75
2018-03-21T09:13:37.473Z,77
2018-03-21T09:14:38.204Z,79
2018-03-21T09:15:38.936Z,78
2018-03-21T09:16:39.657Z,78
2018-03-21T09:17:40.389Z,78
2018-03-21T09:18:41.106Z,77
2018-03-21T09:19:41.825Z,78
2018-03-21T09:20:42.551Z,79
2018-03-21T09:21:43.260Z,79
2018-03-21T09:22:43.992Z,79
2018-03-21T09:23:44.719Z,80
2018-03-21T09:24:45.435Z,80
2018-03-21T09:25:46.170Z,80
2018-03-21T09:26:46.896Z,80
2018-03-21T09:27:47.616Z,81
2018-03-21T09:28:48.344Z,81
2018-03-21T09:29:49.059Z,80
2018-03-21T09:30:49.776Z,80
2018-03-21T09:31:50.493Z,80
2018-03-21T09:32:51.209Z,79
2018-03-21T09:33:51.942Z,79
2018-03-21T09:34:52.655Z,79
2018-03-21T09:35:53.372Z,79
2018-03-21T09:36:54.089Z,79
2018-03-21T09:37:54.806Z,79
2018-03-21T09:38:55.520Z,79
2018-03-21T09:39:56.237Z,80
2018-03-21T09:40:56.955Z,80
2018-03-21T09:41:57.674Z,80
2018-03-21T09:42:58.391Z,79
2018-03-21T09:43:59.111Z,83
2018-03-21T09:44:59.847Z,82
2018-03-21T09:46:00.576Z,82
2018-03-21T09:47:01.308Z,82
2018-03-21T09:48:02.029Z,82
2018-03-21T09:49:02.748Z,81
2018-03-21T09:50:03.465Z,81
2018-03-21T09:51:04.183Z,82
2018-03-21T09:52:04.903Z,82
2018-03-21T09:53:05.622Z,84
2018-03-21T09:54:06.342Z,83
2018-03-21T09:55:07.063Z,84
2018-03-21T09:56:07.782Z,84
2018-03-21T09:57:08.501Z,84
2018-03-21T09:58:09.223Z,83
2018-03-21T09:59:09.959Z,83
2018-03-21T10:00:10.680Z,84
2018-03-21T10:01:11.412Z,84
2018-03-21T10:02:12.135Z,84
2018-03-21T10:03:12.854Z,84
2018-03-21T10:04:13.573Z,83
2018-03-21T10:05:14.291Z,83
2018-03-21T10:06:15.062Z,83
2018-03-21T10:07:15.739Z,82
2018-03-21T10:08:16.474Z,80
2018-03-21T10:09:17.190Z,81
2018-03-21T10:10:17.909Z,81
2018-03-21T10:11:18.626Z,80
2018-03-21T10:12:19.344Z,80
2018-03-21T10:13:20.068Z,80
2018-03-21T10:14:20.833Z,80
2018-03-21T10:15:21.500Z,80
2018-03-21T10:16:22.218Z,80
2018-03-21T10:17:22.934Z,80
2018-03-21T10:18:23.651Z,80
2018-03-21T10:19:24.371Z,80
2018-03-21T10:20:25.088Z,80
2018-03-21T10:21:25.805Z,80
2018-03-21T10:22:26.521Z,80
2018-03-21T10:23:27.252Z,79
2018-03-21T10:24:27.968Z,80
2018-03-21T10:25:28.686Z,80
2018-03-21T10:26:29.403Z,80
2018-03-21T10:27:30.132Z,80
2018-03-21T10:28:30.849Z,80
2018-03-21T10:29:31.567Z,80
2018-03-21T10:30:32.284Z,80
2018-03-21T10:31:33.014Z,81
2018-03-21T10:32:33.733Z,80
2018-03-21T10:33:34.449Z,81
2018-03-21T10:34:35.192Z,80
2018-03-21T10:35:35.907Z,80
2018-03-21T10:36:36.639Z,81
2018-03-21T10:37:37.355Z,81
2018-03-21T10:38:38.071Z,81
2018-03-21T10:39:38.785Z,82
2018-03-21T10:40:39.501Z,82
2018-03-21T10:41:40.218Z,82
2018-03-21T10:42:40.953Z,82
2018-03-21T10:43:41.655Z,82
2018-03-21T10:44:42.372Z,82
2018-03-21T10:45:43.102Z,83
2018-03-21T10:46:43.818Z,82
2018-03-21T10:47:44.535Z,82
2018-03-21T10:48:45.254Z,83
2018-03-21T10:49:45.970Z,83
2018-03-21T10:50:46.689Z,83
2018-03-21T10:51:47.420Z,83
2018-03-21T10:52:48.152Z,83
2018-03-21T10:53:48.870Z,84
2018-03-21T10:54:49.605Z,83
2018-03-21T10:55:50.323Z,83
2018-03-21T10:56:51.045Z,82
2018-03-21T10:57:51.762Z,81
2018-03-21T10:58:52.479Z,81
2018-03-21T10:59:53.195Z,81
2018-03-21T11:00:53.912Z,80
2018-03-21T11:01:54.647Z,79
2018-03-21T11:02:55.432Z,80
2018-03-21T11:03:56.109Z,80
2018-03-21T11:04:56.826Z,81
2018-03-21T11:05:57.543Z,81
2018-03-21T11:06:58.263Z,81
2018-03-21T11:07:58.982Z,81
2018-03-21T11:08:59.700Z,80
2018-03-21T11:10:00.417Z,79
2018-03-21T11:11:01.134Z,79
2018-03-21T11:12:01.865Z,79
2018-03-21T11:13:02.586Z,79
2018-03-21T11:14:03.316Z,79
2018-03-21T11:15:04.031Z,80
2018-03-21T11:16:04.750Z,80
2018-03-21T11:17:05.469Z,79
2018-03-21T11:18:06.189Z,79
2018-03-21T11:19:06.918Z,79
2018-03-21T11:20:07.643Z,79
2018-03-21T11:21:08.371Z,79
2018-03-21T11:22:09.088Z,79
2018-03-21T11:23:09.805Z,79
2018-03-21T11:24:10.537Z,79
2018-03-21T11:25:11.262Z,80
2018-03-21T11:26:11.971Z,80
2018-03-21T11:27:12.691Z,81
2018-03-21T11:28:13.422Z,81
2018-03-21T11:29:14.153Z,82
2018-03-21T11:30:14.869Z,82
2018-03-21T11:31:15.586Z,82
2018-03-21T11:32:16.306Z,83
2018-03-21T11:33:17.035Z,82
2018-03-21T11:34:17.742Z,83
2018-03-21T11:35:18.462Z,84
2018-03-21T11:36:19.199Z,84
2018-03-21T11:37:19.916Z,84
2018-03-21T11:38:20.634Z,84
2018-03-21T11:39:21.355Z,84
2018-03-21T11:40:22.076Z,84
2018-03-21T11:41:22.797Z,85
2018-03-21T11:42:23.521Z,86
2018-03-21T11:43:24.244Z,84
2018-03-21T11:44:24.966Z,83
2018-03-21T11:45:25.704Z,84
2018-03-21T11:46:26.426Z,83
2018-03-21T11:47:27.149Z,83
2018-03-21T11:48:27.874Z,83
2018-03-21T11:49:28.594Z,82
2018-03-21T11:50:29.329Z,83
2018-03-21T11:51:30.051Z,82
2018-03-21T11:52:30.774Z,83
2018-03-21T11:53:31.502Z,83
2018-03-21T11:54:32.224Z,83
2018-03-21T11:55:32.948Z,82
2018-03-21T11:56:33.671Z,81
2018-03-21T11:57:34.394Z,81
2018-03-21T11:58:35.116Z,81
2018-03-21T11:59:35.859Z,82
2018-03-21T12:00:36.576Z,82
2018-03-21T12:01:37.295Z,80
2018-03-21T12:02:38.017Z,80
2018-03-21T12:03:38.736Z,80
2018-03-21T12:04:39.458Z,80
2018-03-21T12:05:40.180Z,81
2018-03-21T12:06:40.915Z,80
2018-03-21T12:07:41.634Z,80
2018-03-21T12:08:42.431Z,80
2018-03-21T12:09:43.071Z,80
2018-03-21T12:10:43.787Z,80
2018-03-21T12:11:44.506Z,80
2018-03-21T12:12:45.242Z,81
2018-03-21T12:13:45.960Z,82
2018-03-21T12:14:46.681Z,81
2018-03-21T12:15:47.400Z,82
2018-03-21T12:16:48.120Z,81
2018-03-21T12:17:48.838Z,81
2018-03-21T12:18:49.555Z,82
2018-03-21T12:19:50.275Z,81
2018-03-21T12:20:50.989Z,81
2018-03-21T12:21:51.706Z,81
2018-03-21T12:22:52.422Z,81
2018-03-21T12:23:53.147Z,81
2018-03-21T12:24:53.898Z,81
2018-03-21T12:25:54.577Z,81
2018-03-21T12:26:55.294Z,81
2018-03-21T12:27:56.011Z,80
2018-03-21T12:28:56.727Z,80
2018-03-21T12:29:57.443Z,80
2018-03-21T12:30:58.161Z,80
2018-03-21T12:31:58.893Z,81
2018-03-21T12:32:59.608Z,82
2018-03-21T12:34:00.324Z,82
2018-03-21T12:35:01.055Z,82
2018-03-21T12:36:01.771Z,82
2018-03-21T12:37:02.489Z,81
2018-03-21T12:38:03.209Z,82
2018-03-21T12:39:03.918Z,82
2018-03-21T12:40:04.636Z,82
2018-03-21T12:41:05.365Z,82
2018-03-21T12:42:06.077Z,81
2018-03-21T12:43:06.793Z,82
2018-03-21T12:44:07.510Z,81
2018-03-21T12:45:08.227Z,82
2018-03-21T12:46:08.957Z,81
2018-03-21T12:47:09.671Z,81
2018-03-21T12:48:10.389Z,82
2018-03-21T12:49:11.104Z,81
2018-03-21T12:50:11.854Z,82
2018-03-21T12:51:12.541Z,82
2018-03-21T12:52:13.259Z,82
2018-03-21T12:53:13.975Z,81
2018-03-21T12:54:14.710Z,82
2018-03-21T12:55:15.424Z,82
2018-03-21T12:56:16.287Z,83
2018-03-21T12:57:16.870Z,83
2018-03-21T12:58:17.592Z,84
2018-03-21T12:59:18.328Z,84
2018-03-21T13:00:19.067Z,85
2018-03-21T13:01:19.793Z,86
2018-03-21T13:02:20.516Z,85
2018-03-21T13:03:21.241Z,83
2018-03-21T13:04:21.977Z,83
2018-03-21T13:05:22.720Z,83
2018-03-21T13:06:23.440Z,83
2018-03-21T13:07:24.164Z,84
2018-03-21T13:08:24.890Z,84
2018-03-21T13:09:25.622Z,84
2018-03-21T13:10:26.346Z,83
2018-03-21T13:11:27.073Z,82
2018-03-21T13:12:27.803Z,80
2018-03-21T13:13:28.531Z,78
2018-03-21T13:14:29.261Z,76
2018-03-21T13:15:29.990Z,75
2018-03-21T13:16:30.718Z,74
2018-03-21T13:17:31.448Z,76
2018-03-21T13:18:32.191Z,78
2018-03-21T13:19:32.920Z,78
2018-03-21T13:20:33.648Z,77
2018-03-21T13:21:34.379Z,77
2018-03-21T13:22:35.104Z,77
2018-03-21T13:23:35.845Z,78
2018-03-21T13:24:36.569Z,79
2018-03-21T13:25:37.306Z,79
2018-03-21T13:26:38.036Z,79
2018-03-21T13:27:38.777Z,79
2018-03-21T13:28:39.516Z,78
2018-03-21T13:29:40.244Z,78
2018-03-21T13:30:40.983Z,79
2018-03-21T13:31:41.706Z,79
2018-03-21T13:32:42.432Z,80
2018-03-21T13:33:43.173Z,81
2018-03-21T13:34:43.891Z,80
2018-03-21T13:35:44.614Z,81
2018-03-21T13:36:45.337Z,80
2018-03-21T13:37:46.060Z,81
2018-03-21T13:38:46.783Z,82
2018-03-21T13:39:47.505Z,82
2018-03-21T13:40:48.226Z,82
2018-03-21T13:41:48.946Z,82
2018-03-21T13:42:49.665Z,83
2018-03-21T13:43:50.383Z,82
2018-03-21T13:44:51.104Z,82
2018-03-21T13:45:51.823Z,82
2018-03-21T13:46:52.544Z,83
2018-03-21T13:47:53.266Z,83
2018-03-21T13:48:53.996Z,83
2018-03-21T13:49:54.730Z,84
2018-03-21T13:50:55.460Z,83
2018-03-21T13:51:56.193Z,83
2018-03-21T13:52:56.913Z,83
2018-03-21T13:53:57.646Z,83
2018-03-21T13:54:58.362Z,83
2018-03-21T13:55:59.095Z,83
2018-03-21T13:56:59.814Z,83
2018-03-21T13:58:00.538Z,83
2018-03-21T13:59:01.266Z,84
2018-03-21T14:00:01.984Z,84
2018-03-21T14:01:02.700Z,84
2018-03-21T14:02:03.429Z,84
2018-03-21T14:03:04.147Z,84
2018-03-21T14:04:04.878Z,83
2018-03-21T14:05:05.595Z,83
2018-03-21T14:06:06.313Z,84
2018-03-21T14:07:07.044Z,83
2018-03-21T14:08:07.763Z,83
2018-03-21T14:09:08.477Z,83
2018-03-21T14:10:09.200Z,83
2018-03-21T14:11:09.913Z,83
2018-03-21T14:12:10.630Z,83
2018-03-21T14:13:11.348Z,84
2018-03-21T14:14:12.060Z,83
2018-03-21T14:15:12.777Z,84
2018-03-21T14:16:13.496Z,84
2018-03-21T14:17:14.213Z,84
2018-03-21T14:18:14.932Z,83
2018-03-21T14:19:15.651Z,84
2018-03-21T14:20:16.369Z,84
2018-03-21T14:21:17.102Z,84
2018-03-21T14:22:17.846Z,84
2018-03-21T14:23:18.599Z,84
2018-03-21T14:24:19.269Z,84
2018-03-21T14:25:19.990Z,84